sensor_id;sensor_type;location;lat;lon;timestamp;temperature;humidity
8152;DHT22;4117;53.622;9.958;2023-02-01T00:01:08;5.00;34.80
8152;DHT22;4117;53.622;9.958;2023-02-01T00:03:35;5.00;34.80
8152;DHT22;4117;53.622;9.958;2023-02-01T00:06:02;5.00;33.40
8152;DHT22;4117;53.622;9.958;2023-02-01T00:08:29;5.00;34.80
8152;DHT22;4117;53.622;9.958;2023-02-01T00:11:00;5.00;37.40
8152;DHT22;4117;53.622;9.958;2023-02-01T00:13:32;4.80;39.20
8152;DHT22;4117;53.622;9.958;2023-02-01T00:16:04;4.70;42.80
8152;DHT22;4117;53.622;9.958;2023-02-01T00:18:31;4.70;44.60
8152;DHT22;4117;53.622;9.958;2023-02-01T00:20:58;4.70;46.80
8152;DHT22;4117;53.622;9.958;2023-02-01T00:23:25;4.70;46.80
8152;DHT22;4117;53.622;9.958;2023-02-01T00:25:53;4.70;46.80
8152;DHT22;4117;53.622;9.958;2023-02-01T00:28:20;4.70;46.40
8152;DHT22;4117;53.622;9.958;2023-02-01T00:30:55;4.80;41.00
8152;DHT22;4117;53.622;9.958;2023-02-01T00:33:22;4.80;40.80
8152;DHT22;4117;53.622;9.958;2023-02-01T00:35:49;4.80;34.60
8152;DHT22;4117;53.622;9.958;2023-02-01T00:38:16;4.80;37.50
8152;DHT22;4117;53.622;9.958;2023-02-01T00:40:43;4.80;35.60
8152;DHT22;4117;53.622;9.958;2023-02-01T00:43:10;4.90;36.90
8152;DHT22;4117;53.622;9.958;2023-02-01T00:45:36;4.90;34.60
8152;DHT22;4117;53.622;9.958;2023-02-01T00:48:05;4.90;34.70
8152;DHT22;4117;53.622;9.958;2023-02-01T00:50:32;4.90;34.70
8152;DHT22;4117;53.622;9.958;2023-02-01T00:52:59;4.90;34.70
8152;DHT22;4117;53.622;9.958;2023-02-01T00:55:26;4.90;34.70
8152;DHT22;4117;53.622;9.958;2023-02-01T00:57:53;5.00;34.80
8152;DHT22;4117;53.622;9.958;2023-02-01T01:00:20;5.00;34.80
8152;DHT22;4117;53.622;9.958;2023-02-01T01:02:46;5.00;38.70
8152;DHT22;4117;53.622;9.958;2023-02-01T01:05:15;5.00;37.20
8152;DHT22;4117;53.622;9.958;2023-02-01T01:07:42;5.00;39.20
8152;DHT22;4117;53.622;9.958;2023-02-01T01:10:09;5.00;38.70
8152;DHT22;4117;53.622;9.958;2023-02-01T01:12:36;5.00;37.40
8152;DHT22;4117;53.622;9.958;2023-02-01T01:15:04;5.00;38.10
8152;DHT22;4117;53.622;9.958;2023-02-01T01:17:31;5.10;35.50
8152;DHT22;4117;53.622;9.958;2023-02-01T01:19:58;5.10;37.70
8152;DHT22;4117;53.622;9.958;2023-02-01T01:22:27;5.10;36.20
8152;DHT22;4117;53.622;9.958;2023-02-01T01:24:53;5.10;34.90
8152;DHT22;4117;53.622;9.958;2023-02-01T01:27:20;5.10;36.50
8152;DHT22;4117;53.622;9.958;2023-02-01T01:29:49;5.10;38.90
8152;DHT22;4117;53.622;9.958;2023-02-01T01:32:16;5.00;37.20
8152;DHT22;4117;53.622;9.958;2023-02-01T01:34:43;5.00;36.60
8152;DHT22;4117;53.622;9.958;2023-02-01T01:37:10;5.00;36.20
8152;DHT22;4117;53.622;9.958;2023-02-01T01:39:38;5.00;35.20
8152;DHT22;4117;53.622;9.958;2023-02-01T01:42:05;5.10;34.90
8152;DHT22;4117;53.622;9.958;2023-02-01T01:44:55;5.10;34.90
8152;DHT22;4117;53.622;9.958;2023-02-01T01:47:23;5.10;34.90
8152;DHT22;4117;53.622;9.958;2023-02-01T01:49:51;5.10;34.90
8152;DHT22;4117;53.622;9.958;2023-02-01T01:52:18;5.10;34.90
8152;DHT22;4117;53.622;9.958;2023-02-01T01:54:49;5.10;34.90
8152;DHT22;4117;53.622;9.958;2023-02-01T01:57:19;5.10;34.90
8152;DHT22;4117;53.622;9.958;2023-02-01T01:59:54;5.10;34.90
8152;DHT22;4117;53.622;9.958;2023-02-01T02:02:22;5.20;37.80
8152;DHT22;4117;53.622;9.958;2023-02-01T02:04:50;5.20;36.80
8152;DHT22;4117;53.622;9.958;2023-02-01T02:07:21;5.20;34.90
8152;DHT22;4117;53.622;9.958;2023-02-01T02:09:51;5.20;34.90
8152;DHT22;4117;53.622;9.958;2023-02-01T02:12:18;5.20;34.90
8152;DHT22;4117;53.622;9.958;2023-02-01T02:14:45;5.20;34.90
8152;DHT22;4117;53.622;9.958;2023-02-01T02:17:23;5.20;37.40
8152;DHT22;4117;53.622;9.958;2023-02-01T02:20:24;5.20;34.90
8152;DHT22;4117;53.622;9.958;2023-02-01T02:35:09;5.20;37.50
8152;DHT22;4117;53.622;9.958;2023-02-01T02:37:42;5.20;38.80
8152;DHT22;4117;53.622;9.958;2023-02-01T02:40:16;5.20;41.30
8152;DHT22;4117;53.622;9.958;2023-02-01T02:42:50;5.10;45.10
8152;DHT22;4117;53.622;9.958;2023-02-01T02:45:41;5.10;45.10
8152;DHT22;4117;53.622;9.958;2023-02-01T02:48:32;5.10;47.10
8152;DHT22;4117;53.622;9.958;2023-02-01T02:51:07;5.10;48.20
8152;DHT22;4117;53.622;9.958;2023-02-01T02:53:58;5.10;50.20
8152;DHT22;4117;53.622;9.958;2023-02-01T02:56:43;5.00;49.70
8152;DHT22;4117;53.622;9.958;2023-02-01T02:59:28;5.00;52.30
8152;DHT22;4117;53.622;9.958;2023-02-01T03:02:15;5.00;53.10
8152;DHT22;4117;53.622;9.958;2023-02-01T03:05:00;5.00;53.10
8152;DHT22;4117;53.622;9.958;2023-02-01T03:08:00;5.00;55.80
8152;DHT22;4117;53.622;9.958;2023-02-01T03:10:35;4.90;58.70
8152;DHT22;4117;53.622;9.958;2023-02-01T03:13:06;4.90;60.50
8152;DHT22;4117;53.622;9.958;2023-02-01T03:15:37;4.90;66.10
8152;DHT22;4117;53.622;9.958;2023-02-01T03:18:11;4.90;67.90
8152;DHT22;4117;53.622;9.958;2023-02-01T03:20:40;4.90;71.70
8152;DHT22;4117;53.622;9.958;2023-02-01T03:23:12;4.90;71.70
8152;DHT22;4117;53.622;9.958;2023-02-01T03:25:40;4.90;71.80
8152;DHT22;4117;53.622;9.958;2023-02-01T03:28:10;4.90;72.70
8152;DHT22;4117;53.622;9.958;2023-02-01T03:30:39;4.90;72.80
8152;DHT22;4117;53.622;9.958;2023-02-01T03:33:09;4.90;75.20
8152;DHT22;4117;53.622;9.958;2023-02-01T03:35:43;4.90;76.00
8152;DHT22;4117;53.622;9.958;2023-02-01T03:38:19;4.80;77.80
8152;DHT22;4117;53.622;9.958;2023-02-01T03:40:51;4.80;71.70
8152;DHT22;4117;53.622;9.958;2023-02-01T03:43:19;4.80;71.70
8152;DHT22;4117;53.622;9.958;2023-02-01T03:45:52;4.70;71.70
8152;DHT22;4117;53.622;9.958;2023-02-01T03:48:19;4.70;71.60
8152;DHT22;4117;53.622;9.958;2023-02-01T03:50:50;4.70;77.80
8152;DHT22;4117;53.622;9.958;2023-02-01T03:53:22;4.70;72.30
8152;DHT22;4117;53.622;9.958;2023-02-01T03:55:50;4.70;73.20
8152;DHT22;4117;53.622;9.958;2023-02-01T03:58:20;4.70;74.70
8152;DHT22;4117;53.622;9.958;2023-02-01T04:00:52;4.70;76.70
8152;DHT22;4117;53.622;9.958;2023-02-01T04:03:20;4.70;77.30
8152;DHT22;4117;53.622;9.958;2023-02-01T04:05:48;4.70;79.30
8152;DHT22;4117;53.622;9.958;2023-02-01T04:08:15;4.70;81.10
8152;DHT22;4117;53.622;9.958;2023-02-01T04:10:43;4.70;81.70
8152;DHT22;4117;53.622;9.958;2023-02-01T04:13:10;4.70;82.80
8152;DHT22;4117;53.622;9.958;2023-02-01T04:15:37;4.70;84.70
8152;DHT22;4117;53.622;9.958;2023-02-01T04:18:04;4.70;84.40
8152;DHT22;4117;53.622;9.958;2023-02-01T04:20:32;4.70;87.20
8152;DHT22;4117;53.622;9.958;2023-02-01T04:22:58;4.70;88.70
8152;DHT22;4117;53.622;9.958;2023-02-01T04:25:28;4.60;91.10
8152;DHT22;4117;53.622;9.958;2023-02-01T04:27:57;4.60;92.30
8152;DHT22;4117;53.622;9.958;2023-02-01T04:30:25;4.60;92.10
8152;DHT22;4117;53.622;9.958;2023-02-01T04:32:51;4.60;91.20
8152;DHT22;4117;53.622;9.958;2023-02-01T04:35:18;4.60;90.90
8152;DHT22;4117;53.622;9.958;2023-02-01T04:37:45;4.60;92.00
8152;DHT22;4117;53.622;9.958;2023-02-01T04:40:12;4.60;91.00
8152;DHT22;4117;53.622;9.958;2023-02-01T04:42:39;4.60;90.40
8152;DHT22;4117;53.622;9.958;2023-02-01T04:45:08;4.60;90.20
8152;DHT22;4117;53.622;9.958;2023-02-01T04:47:35;4.50;90.50
8152;DHT22;4117;53.622;9.958;2023-02-01T04:50:03;4.50;90.80
8152;DHT22;4117;53.622;9.958;2023-02-01T04:52:31;4.50;91.30
8152;DHT22;4117;53.622;9.958;2023-02-01T04:54:58;4.50;90.60
8152;DHT22;4117;53.622;9.958;2023-02-01T04:57:27;4.40;90.70
8152;DHT22;4117;53.622;9.958;2023-02-01T04:59:54;4.40;90.20
8152;DHT22;4117;53.622;9.958;2023-02-01T05:02:22;4.40;86.30
8152;DHT22;4117;53.622;9.958;2023-02-01T05:04:49;4.40;90.90
8152;DHT22;4117;53.622;9.958;2023-02-01T05:07:16;4.40;92.40
8152;DHT22;4117;53.622;9.958;2023-02-01T05:09:43;4.30;92.20
8152;DHT22;4117;53.622;9.958;2023-02-01T05:12:10;4.30;92.90
8152;DHT22;4117;53.622;9.958;2023-02-01T05:14:54;4.20;92.80
8152;DHT22;4117;53.622;9.958;2023-02-01T05:17:22;4.20;92.80
8152;DHT22;4117;53.622;9.958;2023-02-01T05:19:49;4.10;92.70
8152;DHT22;4117;53.622;9.958;2023-02-01T05:22:16;4.10;92.70
8152;DHT22;4117;53.622;9.958;2023-02-01T05:24:43;4.00;92.70
8152;DHT22;4117;53.622;9.958;2023-02-01T05:27:10;3.90;88.90
8152;DHT22;4117;53.622;9.958;2023-02-01T05:29:37;3.80;88.40
8152;DHT22;4117;53.622;9.958;2023-02-01T05:32:04;3.70;92.00
8152;DHT22;4117;53.622;9.958;2023-02-01T05:34:32;3.70;92.20
8152;DHT22;4117;53.622;9.958;2023-02-01T05:36:59;3.70;89.50
8152;DHT22;4117;53.622;9.958;2023-02-01T05:39:26;3.60;92.30
8152;DHT22;4117;53.622;9.958;2023-02-01T05:41:53;3.60;91.10
8152;DHT22;4117;53.622;9.958;2023-02-01T05:44:20;3.60;90.70
8152;DHT22;4117;53.622;9.958;2023-02-01T05:46:47;3.50;90.90
8152;DHT22;4117;53.622;9.958;2023-02-01T05:49:14;3.50;90.20
8152;DHT22;4117;53.622;9.958;2023-02-01T05:51:43;3.50;90.00
8152;DHT22;4117;53.622;9.958;2023-02-01T05:54:10;3.40;87.00
8152;DHT22;4117;53.622;9.958;2023-02-01T05:56:36;3.40;91.50
8152;DHT22;4117;53.622;9.958;2023-02-01T05:59:03;3.30;92.40
8152;DHT22;4117;53.622;9.958;2023-02-01T06:01:31;3.30;90.60
8152;DHT22;4117;53.622;9.958;2023-02-01T06:03:57;3.30;91.70
8152;DHT22;4117;53.622;9.958;2023-02-01T06:06:24;3.20;92.00
8152;DHT22;4117;53.622;9.958;2023-02-01T06:08:53;3.30;92.40
8152;DHT22;4117;53.622;9.958;2023-02-01T06:11:19;3.30;92.40
8152;DHT22;4117;53.622;9.958;2023-02-01T06:13:46;3.30;92.40
8152;DHT22;4117;53.622;9.958;2023-02-01T06:16:13;3.30;92.40
8152;DHT22;4117;53.622;9.958;2023-02-01T06:18:41;3.30;92.40
8152;DHT22;4117;53.622;9.958;2023-02-01T06:21:08;3.40;92.50
8152;DHT22;4117;53.622;9.958;2023-02-01T06:23:35;3.40;92.50
8152;DHT22;4117;53.622;9.958;2023-02-01T06:26:05;3.30;92.40
8152;DHT22;4117;53.622;9.958;2023-02-01T06:28:33;3.30;91.50
8152;DHT22;4117;53.622;9.958;2023-02-01T06:31:03;3.30;92.40
8152;DHT22;4117;53.622;9.958;2023-02-01T06:33:32;3.30;93.60
8152;DHT22;4117;53.622;9.958;2023-02-01T06:35:59;3.40;94.70
8152;DHT22;4117;53.622;9.958;2023-02-01T06:38:27;3.40;95.30
8152;DHT22;4117;53.622;9.958;2023-02-01T06:40:55;3.40;95.20
8152;DHT22;4117;53.622;9.958;2023-02-01T06:43:25;3.50;97.40
8152;DHT22;4117;53.622;9.958;2023-02-01T06:45:52;3.50;97.90
8152;DHT22;4117;53.622;9.958;2023-02-01T06:48:19;3.50;97.90
8152;DHT22;4117;53.622;9.958;2023-02-01T06:50:46;3.50;99.90
8152;DHT22;4117;53.622;9.958;2023-02-01T06:53:13;3.50;99.90
8152;DHT22;4117;53.622;9.958;2023-02-01T06:55:40;3.50;99.90
8152;DHT22;4117;53.622;9.958;2023-02-01T06:58:07;3.60;99.90
8152;DHT22;4117;53.622;9.958;2023-02-01T07:00:35;3.60;99.90
8152;DHT22;4117;53.622;9.958;2023-02-01T07:03:02;3.60;99.90
8152;DHT22;4117;53.622;9.958;2023-02-01T07:05:29;3.60;99.90
8152;DHT22;4117;53.622;9.958;2023-02-01T07:07:56;3.70;99.90
8152;DHT22;4117;53.622;9.958;2023-02-01T07:10:23;3.70;99.90
8152;DHT22;4117;53.622;9.958;2023-02-01T07:12:50;3.80;99.90
8152;DHT22;4117;53.622;9.958;2023-02-01T07:15:17;3.80;99.90
8152;DHT22;4117;53.622;9.958;2023-02-01T07:17:45;3.80;99.90
8152;DHT22;4117;53.622;9.958;2023-02-01T07:20:13;3.80;99.90
8152;DHT22;4117;53.622;9.958;2023-02-01T07:22:40;3.80;99.90
8152;DHT22;4117;53.622;9.958;2023-02-01T07:25:07;3.80;99.90
8152;DHT22;4117;53.622;9.958;2023-02-01T07:27:34;3.80;99.90
8152;DHT22;4117;53.622;9.958;2023-02-01T07:30:01;3.90;99.90
8152;DHT22;4117;53.622;9.958;2023-02-01T07:32:28;3.90;99.90
8152;DHT22;4117;53.622;9.958;2023-02-01T07:34:58;3.90;99.90
8152;DHT22;4117;53.622;9.958;2023-02-01T07:37:25;4.00;99.90
8152;DHT22;4117;53.622;9.958;2023-02-01T07:39:53;4.00;99.90
8152;DHT22;4117;53.622;9.958;2023-02-01T07:42:22;4.00;99.90
8152;DHT22;4117;53.622;9.958;2023-02-01T07:44:50;4.00;99.90
8152;DHT22;4117;53.622;9.958;2023-02-01T07:47:16;4.00;99.90
8152;DHT22;4117;53.622;9.958;2023-02-01T07:49:43;4.00;99.90
8152;DHT22;4117;53.622;9.958;2023-02-01T07:52:12;4.10;99.90
8152;DHT22;4117;53.622;9.958;2023-02-01T07:54:42;4.10;99.90
8152;DHT22;4117;53.622;9.958;2023-02-01T07:57:09;4.10;99.90
8152;DHT22;4117;53.622;9.958;2023-02-01T07:59:37;4.20;99.90
8152;DHT22;4117;53.622;9.958;2023-02-01T08:02:24;4.20;99.90
8152;DHT22;4117;53.622;9.958;2023-02-01T08:04:50;4.30;99.90
8152;DHT22;4117;53.622;9.958;2023-02-01T08:07:18;4.30;99.90
8152;DHT22;4117;53.622;9.958;2023-02-01T08:09:45;4.40;99.90
8152;DHT22;4117;53.622;9.958;2023-02-01T08:12:12;4.40;99.90
8152;DHT22;4117;53.622;9.958;2023-02-01T08:14:39;4.50;99.90
8152;DHT22;4117;53.622;9.958;2023-02-01T08:17:06;4.50;99.90
8152;DHT22;4117;53.622;9.958;2023-02-01T08:19:33;4.50;99.90
8152;DHT22;4117;53.622;9.958;2023-02-01T08:22:00;4.60;99.90
8152;DHT22;4117;53.622;9.958;2023-02-01T08:24:33;4.60;99.90
8152;DHT22;4117;53.622;9.958;2023-02-01T08:27:00;4.60;99.90
8152;DHT22;4117;53.622;9.958;2023-02-01T08:29:27;4.70;99.90
8152;DHT22;4117;53.622;9.958;2023-02-01T08:31:54;4.70;99.90
8152;DHT22;4117;53.622;9.958;2023-02-01T08:34:22;4.80;99.90
8152;DHT22;4117;53.622;9.958;2023-02-01T08:36:49;4.80;99.90
8152;DHT22;4117;53.622;9.958;2023-02-01T08:39:18;4.90;99.90
8152;DHT22;4117;53.622;9.958;2023-02-01T08:41:47;4.80;99.90
8152;DHT22;4117;53.622;9.958;2023-02-01T08:44:34;4.80;99.90
8152;DHT22;4117;53.622;9.958;2023-02-01T08:47:01;4.80;99.90
8152;DHT22;4117;53.622;9.958;2023-02-01T08:49:28;4.80;98.50
8152;DHT22;4117;53.622;9.958;2023-02-01T08:51:56;4.70;98.40
8152;DHT22;4117;53.622;9.958;2023-02-01T08:54:23;4.70;98.30
8152;DHT22;4117;53.622;9.958;2023-02-01T08:56:52;4.60;95.00
8152;DHT22;4117;53.622;9.958;2023-02-01T08:59:20;4.60;96.00
8152;DHT22;4117;53.622;9.958;2023-02-01T09:01:47;4.60;98.30
8152;DHT22;4117;53.622;9.958;2023-02-01T09:04:13;4.60;98.40
8152;DHT22;4117;53.622;9.958;2023-02-01T09:06:41;4.60;99.70
8152;DHT22;4117;53.622;9.958;2023-02-01T09:09:08;4.70;99.30
8152;DHT22;4117;53.622;9.958;2023-02-01T09:11:35;4.80;99.90
8152;DHT22;4117;53.622;9.958;2023-02-01T09:14:03;4.80;99.90
8152;DHT22;4117;53.622;9.958;2023-02-01T09:16:30;4.90;99.80
8152;DHT22;4117;53.622;9.958;2023-02-01T09:18:57;4.90;99.90
8152;DHT22;4117;53.622;9.958;2023-02-01T09:21:24;4.90;99.90
8152;DHT22;4117;53.622;9.958;2023-02-01T09:23:51;5.00;99.90
8152;DHT22;4117;53.622;9.958;2023-02-01T09:26:18;5.20;99.90
8152;DHT22;4117;53.622;9.958;2023-02-01T09:28:45;5.30;99.90
8152;DHT22;4117;53.622;9.958;2023-02-01T09:31:14;5.40;93.10
8152;DHT22;4117;53.622;9.958;2023-02-01T09:33:41;5.40;93.30
8152;DHT22;4117;53.622;9.958;2023-02-01T09:36:08;5.40;92.10
8152;DHT22;4117;53.622;9.958;2023-02-01T09:38:35;5.40;93.30
8152;DHT22;4117;53.622;9.958;2023-02-01T09:41:07;5.40;93.30
8152;DHT22;4117;53.622;9.958;2023-02-01T09:43:45;5.40;90.40
8152;DHT22;4117;53.622;9.958;2023-02-01T09:46:21;5.40;90.70
8152;DHT22;4117;53.622;9.958;2023-02-01T09:48:57;5.40;91.20
8152;DHT22;4117;53.622;9.958;2023-02-01T09:51:29;5.40;91.40
8152;DHT22;4117;53.622;9.958;2023-02-01T09:54:01;5.50;90.10
8152;DHT22;4117;53.622;9.958;2023-02-01T09:56:35;5.50;85.90
8152;DHT22;4117;53.622;9.958;2023-02-01T09:59:10;5.60;85.30
8152;DHT22;4117;53.622;9.958;2023-02-01T10:01:41;5.60;80.90
8152;DHT22;4117;53.622;9.958;2023-02-01T10:04:11;5.70;77.00
8152;DHT22;4117;53.622;9.958;2023-02-01T10:06:56;5.80;72.70
8152;DHT22;4117;53.622;9.958;2023-02-01T10:09:38;5.80;76.70
8152;DHT22;4117;53.622;9.958;2023-02-01T10:12:41;5.80;76.20
8152;DHT22;4117;53.622;9.958;2023-02-01T10:15:28;5.80;78.50
8152;DHT22;4117;53.622;9.958;2023-02-01T10:18:11;5.80;73.40
8152;DHT22;4117;53.622;9.958;2023-02-01T10:20:56;5.80;72.70
8152;DHT22;4117;53.622;9.958;2023-02-01T10:23:55;5.90;69.40
8152;DHT22;4117;53.622;9.958;2023-02-01T10:26:30;5.90;66.10
8152;DHT22;4117;53.622;9.958;2023-02-01T10:29:01;5.80;71.80
8152;DHT22;4117;53.622;9.958;2023-02-01T10:31:34;5.80;72.30
8152;DHT22;4117;53.622;9.958;2023-02-01T10:34:12;5.70;72.60
8152;DHT22;4117;53.622;9.958;2023-02-01T10:36:46;5.70;72.60
8152;DHT22;4117;53.622;9.958;2023-02-01T10:39:16;5.70;72.60
8152;DHT22;4117;53.622;9.958;2023-02-01T10:41:43;5.70;75.00
8152;DHT22;4117;53.622;9.958;2023-02-01T10:44:12;5.70;76.40
8152;DHT22;4117;53.622;9.958;2023-02-01T10:46:41;5.60;85.10
8152;DHT22;4117;53.622;9.958;2023-02-01T10:49:16;5.50;80.50
8152;DHT22;4117;53.622;9.958;2023-02-01T10:51:47;5.40;84.70
8152;DHT22;4117;53.622;9.958;2023-02-01T10:54:17;5.40;85.30
8152;DHT22;4117;53.622;9.958;2023-02-01T10:56:47;5.40;85.10
8152;DHT22;4117;53.622;9.958;2023-02-01T10:59:16;5.30;89.20
8152;DHT22;4117;53.622;9.958;2023-02-01T11:01:45;5.30;93.10
8152;DHT22;4117;53.622;9.958;2023-02-01T11:04:15;5.30;93.60
8152;DHT22;4117;53.622;9.958;2023-02-01T11:06:44;5.10;85.90
8152;DHT22;4117;53.622;9.958;2023-02-01T11:09:18;4.70;84.40
8152;DHT22;4117;53.622;9.958;2023-02-01T11:11:56;4.40;84.20
8152;DHT22;4117;53.622;9.958;2023-02-01T11:14:35;4.40;90.00
8152;DHT22;4117;53.622;9.958;2023-02-01T11:17:17;4.50;92.90
8152;DHT22;4117;53.622;9.958;2023-02-01T11:19:57;4.50;92.90
8152;DHT22;4117;53.622;9.958;2023-02-01T11:22:25;4.60;95.70
8152;DHT22;4117;53.622;9.958;2023-02-01T11:24:52;4.60;95.40
8152;DHT22;4117;53.622;9.958;2023-02-01T11:27:22;4.60;98.10
8152;DHT22;4117;53.622;9.958;2023-02-01T11:29:52;4.70;98.40
8152;DHT22;4117;53.622;9.958;2023-02-01T11:32:21;4.80;99.90
8152;DHT22;4117;53.622;9.958;2023-02-01T11:34:52;4.80;99.90
8152;DHT22;4117;53.622;9.958;2023-02-01T11:37:23;4.90;99.90
8152;DHT22;4117;53.622;9.958;2023-02-01T11:39:56;5.00;99.90
8152;DHT22;4117;53.622;9.958;2023-02-01T11:42:24;5.10;99.90
8152;DHT22;4117;53.622;9.958;2023-02-01T11:45:16;5.10;99.90
8152;DHT22;4117;53.622;9.958;2023-02-01T11:47:43;5.20;99.90
8152;DHT22;4117;53.622;9.958;2023-02-01T11:50:15;5.20;99.90
8152;DHT22;4117;53.622;9.958;2023-02-01T11:52:57;5.20;99.90
8152;DHT22;4117;53.622;9.958;2023-02-01T11:55:49;5.30;99.90
8152;DHT22;4117;53.622;9.958;2023-02-01T11:58:51;5.30;99.90
8152;DHT22;4117;53.622;9.958;2023-02-01T12:01:32;5.20;99.90
8152;DHT22;4117;53.622;9.958;2023-02-01T12:07:04;5.20;99.90
8152;DHT22;4117;53.622;9.958;2023-02-01T12:09:43;5.20;99.90
8152;DHT22;4117;53.622;9.958;2023-02-01T12:12:18;5.10;98.60
8152;DHT22;4117;53.622;9.958;2023-02-01T12:14:59;5.10;98.90
8152;DHT22;4117;53.622;9.958;2023-02-01T12:17:51;5.10;99.70
8152;DHT22;4117;53.622;9.958;2023-02-01T12:20:33;5.10;99.40
8152;DHT22;4117;53.622;9.958;2023-02-01T12:23:14;5.10;99.80
8152;DHT22;4117;53.622;9.958;2023-02-01T12:25:58;5.00;99.90
8152;DHT22;4117;53.622;9.958;2023-02-01T12:31:45;5.00;99.90
8152;DHT22;4117;53.622;9.958;2023-02-01T12:34:38;4.90;99.90
8152;DHT22;4117;53.622;9.958;2023-02-01T12:37:17;4.80;97.30
8152;DHT22;4117;53.622;9.958;2023-02-01T12:39:54;4.70;98.40
8152;DHT22;4117;53.622;9.958;2023-02-01T12:42:28;4.60;98.30
8152;DHT22;4117;53.622;9.958;2023-02-01T12:44:56;4.50;98.20
8152;DHT22;4117;53.622;9.958;2023-02-01T12:47:30;4.40;98.30
8152;DHT22;4117;53.622;9.958;2023-02-01T12:50:02;4.30;98.20
8152;DHT22;4117;53.622;9.958;2023-02-01T12:52:34;4.30;98.40
8152;DHT22;4117;53.622;9.958;2023-02-01T12:55:07;4.30;98.30
8152;DHT22;4117;53.622;9.958;2023-02-01T12:57:42;4.30;98.30
8152;DHT22;4117;53.622;9.958;2023-02-01T13:00:20;4.30;98.20
8152;DHT22;4117;53.622;9.958;2023-02-01T13:02:54;4.30;98.20
8152;DHT22;4117;53.622;9.958;2023-02-01T13:05:28;4.30;98.40
8152;DHT22;4117;53.622;9.958;2023-02-01T13:08:00;4.30;98.20
8152;DHT22;4117;53.622;9.958;2023-02-01T13:10:33;4.30;97.50
8152;DHT22;4117;53.622;9.958;2023-02-01T13:13:10;4.30;99.90
8152;DHT22;4117;53.622;9.958;2023-02-01T13:15:40;4.30;99.90
8152;DHT22;4117;53.622;9.958;2023-02-01T13:18:16;4.30;98.10
8152;DHT22;4117;53.622;9.958;2023-02-01T13:20:49;4.30;97.80
8152;DHT22;4117;53.622;9.958;2023-02-01T13:23:23;4.40;98.30
8152;DHT22;4117;53.622;9.958;2023-02-01T13:25:53;4.50;98.60
8152;DHT22;4117;53.622;9.958;2023-02-01T13:28:25;4.50;98.90
8152;DHT22;4117;53.622;9.958;2023-02-01T13:31:25;4.60;98.30
8152;DHT22;4117;53.622;9.958;2023-02-01T13:34:36;4.50;98.20
8152;DHT22;4117;53.622;9.958;2023-02-01T13:37:18;4.60;98.10
8152;DHT22;4117;53.622;9.958;2023-02-01T13:40:05;4.60;98.30
8152;DHT22;4117;53.622;9.958;2023-02-01T13:42:44;4.70;98.40
8152;DHT22;4117;53.622;9.958;2023-02-01T13:45:17;4.90;98.40
8152;DHT22;4117;53.622;9.958;2023-02-01T13:47:47;4.90;95.80
8152;DHT22;4117;53.622;9.958;2023-02-01T13:50:22;5.00;98.20
8152;DHT22;4117;53.622;9.958;2023-02-01T13:52:55;4.90;95.00
8152;DHT22;4117;53.622;9.958;2023-02-01T13:55:29;4.90;94.60
8152;DHT22;4117;53.622;9.958;2023-02-01T13:58:10;4.90;95.70
8152;DHT22;4117;53.622;9.958;2023-02-01T14:00:42;4.80;92.40
8152;DHT22;4117;53.622;9.958;2023-02-01T14:03:14;4.80;93.10
8152;DHT22;4117;53.622;9.958;2023-02-01T14:09:11;4.40;92.90
8152;DHT22;4117;53.622;9.958;2023-02-01T14:11:42;4.20;90.30
8152;DHT22;4117;53.622;9.958;2023-02-01T14:14:43;4.10;91.50
8152;DHT22;4117;53.622;9.958;2023-02-01T14:17:37;4.00;90.30
8152;DHT22;4117;53.622;9.958;2023-02-01T14:23:26;4.00;92.70
8152;DHT22;4117;53.622;9.958;2023-02-01T14:26:14;4.00;93.90
8152;DHT22;4117;53.622;9.958;2023-02-01T14:28:52;4.00;94.90
8152;DHT22;4117;53.622;9.958;2023-02-01T14:31:33;3.90;95.20
8152;DHT22;4117;53.622;9.958;2023-02-01T14:34:05;3.90;93.20
8152;DHT22;4117;53.622;9.958;2023-02-01T14:36:41;3.90;96.60
8152;DHT22;4117;53.622;9.958;2023-02-01T14:39:33;3.90;98.10
8152;DHT22;4117;53.622;9.958;2023-02-01T14:42:04;3.90;99.10
8152;DHT22;4117;53.622;9.958;2023-02-01T14:44:36;4.00;99.90
8152;DHT22;4117;53.622;9.958;2023-02-01T14:47:33;4.00;99.90
8152;DHT22;4117;53.622;9.958;2023-02-01T14:50:19;4.10;99.90
8152;DHT22;4117;53.622;9.958;2023-02-01T14:52:51;4.10;99.30
8152;DHT22;4117;53.622;9.958;2023-02-01T14:55:28;4.10;99.80
8152;DHT22;4117;53.622;9.958;2023-02-01T14:57:58;4.10;99.90
8152;DHT22;4117;53.622;9.958;2023-02-01T15:00:29;4.10;99.90
8152;DHT22;4117;53.622;9.958;2023-02-01T15:03:19;4.10;99.90
8152;DHT22;4117;53.622;9.958;2023-02-01T15:05:56;4.10;99.90
8152;DHT22;4117;53.622;9.958;2023-02-01T15:08:28;4.10;99.90
8152;DHT22;4117;53.622;9.958;2023-02-01T15:10:57;4.10;99.80
8152;DHT22;4117;53.622;9.958;2023-02-01T15:13:27;4.10;99.90
8152;DHT22;4117;53.622;9.958;2023-02-01T15:16:05;4.20;99.40
8152;DHT22;4117;53.622;9.958;2023-02-01T15:18:33;4.20;99.20
8152;DHT22;4117;53.622;9.958;2023-02-01T15:21:03;4.20;99.40
8152;DHT22;4117;53.622;9.958;2023-02-01T15:23:31;4.20;99.60
8152;DHT22;4117;53.622;9.958;2023-02-01T15:25:58;4.10;99.60
8152;DHT22;4117;53.622;9.958;2023-02-01T15:28:26;4.10;99.90
8152;DHT22;4117;53.622;9.958;2023-02-01T15:30:56;4.10;98.40
8152;DHT22;4117;53.622;9.958;2023-02-01T15:33:24;4.10;98.20
8152;DHT22;4117;53.622;9.958;2023-02-01T15:35:53;4.10;98.20
8152;DHT22;4117;53.622;9.958;2023-02-01T15:38:37;4.10;98.20
8152;DHT22;4117;53.622;9.958;2023-02-01T15:41:10;4.10;98.10
8152;DHT22;4117;53.622;9.958;2023-02-01T15:43:48;4.10;98.20
8152;DHT22;4117;53.622;9.958;2023-02-01T15:46:21;4.10;98.20
8152;DHT22;4117;53.622;9.958;2023-02-01T15:48:51;4.10;99.90
8152;DHT22;4117;53.622;9.958;2023-02-01T15:51:20;4.10;98.20
8152;DHT22;4117;53.622;9.958;2023-02-01T15:53:52;4.10;98.20
8152;DHT22;4117;53.622;9.958;2023-02-01T15:56:24;4.10;98.20
8152;DHT22;4117;53.622;9.958;2023-02-01T15:58:54;4.10;99.90
8152;DHT22;4117;53.622;9.958;2023-02-01T16:01:23;4.10;99.20
8152;DHT22;4117;53.622;9.958;2023-02-01T16:04:02;4.20;99.60
8152;DHT22;4117;53.622;9.958;2023-02-01T16:06:31;4.20;99.90
8152;DHT22;4117;53.622;9.958;2023-02-01T16:09:11;4.20;99.90
8152;DHT22;4117;53.622;9.958;2023-02-01T16:11:49;4.20;99.90
8152;DHT22;4117;53.622;9.958;2023-02-01T16:14:20;4.20;99.50
8152;DHT22;4117;53.622;9.958;2023-02-01T16:16:47;4.20;99.90
8152;DHT22;4117;53.622;9.958;2023-02-01T16:19:14;4.20;99.70
8152;DHT22;4117;53.622;9.958;2023-02-01T16:21:41;4.20;99.90
8152;DHT22;4117;53.622;9.958;2023-02-01T16:24:09;4.20;99.90
8152;DHT22;4117;53.622;9.958;2023-02-01T16:26:36;4.20;99.90
8152;DHT22;4117;53.622;9.958;2023-02-01T16:29:04;4.20;99.90
8152;DHT22;4117;53.622;9.958;2023-02-01T16:31:34;4.30;99.90
8152;DHT22;4117;53.622;9.958;2023-02-01T16:34:02;4.30;99.60
8152;DHT22;4117;53.622;9.958;2023-02-01T16:36:30;4.30;99.10
8152;DHT22;4117;53.622;9.958;2023-02-01T16:38:57;4.30;98.70
8152;DHT22;4117;53.622;9.958;2023-02-01T16:41:26;4.30;98.50
8152;DHT22;4117;53.622;9.958;2023-02-01T16:43:54;4.40;98.30
8152;DHT22;4117;53.622;9.958;2023-02-01T16:46:23;4.40;98.10
8152;DHT22;4117;53.622;9.958;2023-02-01T16:48:54;4.40;96.20
8152;DHT22;4117;53.622;9.958;2023-02-01T16:51:24;4.40;96.40
8152;DHT22;4117;53.622;9.958;2023-02-01T16:53:52;4.40;96.00
8152;DHT22;4117;53.622;9.958;2023-02-01T16:56:21;4.40;95.60
8152;DHT22;4117;53.622;9.958;2023-02-01T16:58:49;4.40;94.90
8152;DHT22;4117;53.622;9.958;2023-02-01T17:01:17;4.50;93.80
8152;DHT22;4117;53.622;9.958;2023-02-01T17:03:45;4.50;94.00
8152;DHT22;4117;53.622;9.958;2023-02-01T17:06:14;4.50;93.20
8152;DHT22;4117;53.622;9.958;2023-02-01T17:08:43;4.60;93.00
8152;DHT22;4117;53.622;9.958;2023-02-01T17:11:15;4.60;92.60